Time;durP1;ratioP1;P1;durP2;ratioP2;P2;SDS_P1;SDS_P2;PMS_P1;PMS_P2;Temp;Humidity;BMP_temperature;BMP_pressure;BME280_temperature;BME280_humidity;BME280_pressure;Samples;Min_cycle;Max_cycle;Signal;HPM_P1;HPM_P2
2023/10/05 00:02:08;;;;;;;4.85;1.98;;;10.70;99.90;;;;;;4970659;28;20027;-73
2023/10/05 00:04:41;;;;;;;5.38;1.90;;;10.70;99.90;;;;;;4955748;28;20390;-73
2023/10/05 00:07:33;;;;;;;5.67;1.60;;;10.60;99.90;;;;;;4956468;28;20960;-73
2023/10/05 00:10:00;;;;;;;4.15;1.95;;;10.60;99.90;;;;;;4956802;28;20324;-73
2023/10/05 00:12:26;;;;;;;4.80;2.22;;;10.60;99.90;;;;;;4954080;28;20031;-74
2023/10/05 00:15:14;;;;;;;4.50;1.83;;;10.60;99.90;;;;;;4948201;28;20058;-74
2023/10/05 00:17:40;;;;;;;5.30;2.25;;;10.60;99.90;;;;;;4953922;28;20055;-74
2023/10/05 00:20:24;;;;;;;7.43;2.95;;;10.60;99.90;;;;;;4946698;28;20023;-74
2023/10/05 00:22:52;;;;;;;4.82;2.85;;;10.50;99.90;;;;;;4964048;28;20027;-74
2023/10/05 00:25:20;;;;;;;6.75;3.97;;;10.50;99.90;;;;;;4956125;28;20035;-74
2023/10/05 00:27:56;;;;;;;6.25;3.70;;;10.50;99.90;;;;;;4954863;28;20508;-74
2023/10/05 00:30:21;;;;;;;6.63;2.38;;;10.50;99.90;;;;;;4954495;28;20023;-73
2023/10/05 00:32:56;;;;;;;7.30;2.72;;;10.50;99.90;;;;;;4952884;28;20040;-73
2023/10/05 00:35:27;;;;;;;4.63;1.85;;;10.50;99.90;;;;;;4952267;28;20110;-73
2023/10/05 00:37:55;;;;;;;4.15;1.92;;;10.50;99.90;;;;;;4954879;28;20027;-73
2023/10/05 00:40:35;;;;;;;2.80;1.60;;;10.50;99.90;;;;;;4950074;28;20025;-73
2023/10/05 00:43:25;;;;;;;2.55;1.17;;;10.40;99.90;;;;;;4954668;28;20035;-73
2023/10/05 00:45:57;;;;;;;2.67;1.30;;;10.40;99.90;;;;;;4952865;28;20509;-74
2023/10/05 00:48:41;;;;;;;5.50;1.40;;;10.40;99.90;;;;;;4968575;28;20038;-74
2023/10/05 00:51:17;;;;;;;7.07;1.40;;;10.40;99.90;;;;;;4956178;28;20038;-74
2023/10/05 00:53:43;;;;;;;5.43;1.70;;;10.40;99.90;;;;;;4946513;28;20038;-74
2023/10/05 00:56:12;;;;;;;3.58;1.80;;;10.40;99.90;;;;;;4956530;28;20113;-74
2023/10/05 00:58:49;;;;;;;6.30;1.45;;;10.40;99.90;;;;;;4950988;28;20025;-73
2023/10/05 01:01:27;;;;;;;2.45;1.15;;;10.30;99.90;;;;;;4953274;28;20019;-73
2023/10/05 01:09:07;;;;;;;2.97;1.35;;;10.30;99.90;;;;;;4951634;28;20027;-74
2023/10/05 01:11:43;;;;;;;4.72;1.55;;;10.30;99.90;;;;;;4951536;28;20561;-74
2023/10/05 01:14:16;;;;;;;4.03;1.23;;;10.30;99.90;;;;;;4953169;28;20023;-74
2023/10/05 01:16:48;;;;;;;3.60;1.45;;;10.30;99.90;;;;;;4966042;28;20038;-74
2023/10/05 01:19:14;;;;;;;4.60;1.20;;;10.30;99.90;;;;;;4962844;28;20581;-73
2023/10/05 01:21:43;;;;;;;3.00;1.30;;;10.30;99.90;;;;;;4953884;28;20114;-74
2023/10/05 01:24:10;;;;;;;3.50;1.30;;;10.30;99.90;;;;;;4948126;28;20026;-74
2023/10/05 01:26:37;;;;;;;3.67;1.30;;;10.20;99.90;;;;;;4952991;28;20069;-74
2023/10/05 01:29:03;;;;;;;4.22;1.17;;;10.20;99.90;;;;;;4953385;28;20037;-74
2023/10/05 01:31:32;;;;;;;3.15;1.17;;;10.20;99.90;;;;;;4953015;28;20111;-73
2023/10/05 01:33:59;;;;;;;7.85;1.60;;;10.20;99.90;;;;;;4955990;28;20066;-73
2023/10/05 01:36:25;;;;;;;5.90;1.33;;;10.20;99.90;;;;;;4952120;28;20059;-74
2023/10/05 01:38:54;;;;;;;4.60;1.40;;;10.20;99.90;;;;;;4956218;28;20031;-73
2023/10/05 01:41:27;;;;;;;4.43;1.20;;;10.10;99.90;;;;;;4945786;28;20038;-75
2023/10/05 01:43:57;;;;;;;8.35;2.15;;;10.20;99.90;;;;;;4952641;28;20023;-74
2023/10/05 01:46:23;;;;;;;3.85;1.60;;;10.10;99.90;;;;;;4951473;28;20442;-74
2023/10/05 01:48:51;;;;;;;3.47;1.45;;;10.10;99.90;;;;;;4956582;28;20390;-75
2023/10/05 01:51:26;;;;;;;3.55;1.52;;;10.10;99.90;;;;;;4951153;28;20438;-75
2023/10/05 01:53:52;;;;;;;4.70;1.45;;;10.10;99.90;;;;;;4955535;28;20479;-74
2023/10/05 01:56:19;;;;;;;3.22;1.60;;;10.10;99.90;;;;;;4952391;28;20055;-75
2023/10/05 01:58:52;;;;;;;2.88;1.33;;;10.10;99.90;;;;;;4954997;28;20031;-75
2023/10/05 02:01:29;;;;;;;3.20;1.30;;;10.10;99.90;;;;;;4952386;28;20024;-75
2023/10/05 02:03:59;;;;;;;2.95;1.50;;;10.00;99.90;;;;;;4948293;28;20028;-75
2023/10/05 02:06:28;;;;;;;2.83;1.50;;;10.00;99.90;;;;;;4967261;28;20027;-75
2023/10/05 02:08:54;;;;;;;3.50;1.20;;;10.00;99.90;;;;;;4954131;28;20031;-75
2023/10/05 02:11:25;;;;;;;6.20;1.52;;;10.00;99.90;;;;;;4952952;28;20050;-75
2023/10/05 02:13:52;;;;;;;3.20;1.40;;;9.90;99.90;;;;;;4948953;28;20070;-75
2023/10/05 02:16:18;;;;;;;4.28;2.05;;;9.90;99.90;;;;;;4955518;28;20030;-75
2023/10/05 02:18:47;;;;;;;4.97;2.47;;;9.90;99.90;;;;;;4951172;28;20450;-74
2023/10/05 02:21:33;;;;;;;7.20;3.15;;;9.90;99.90;;;;;;4952484;28;20031;-75
2023/10/05 02:27:09;;;;;;;;;;;9.90;99.90;;;;;;4952061;28;20151;-75
2023/10/05 02:29:35;;;;;;;4.95;2.80;;;9.80;99.90;;;;;;4954017;28;19966;-75
2023/10/05 02:37:19;;;;;;;6.00;3.10;;;9.80;99.90;;;;;;4950423;28;20069;-75
2023/10/05 02:39:49;;;;;;;6.60;3.05;;;9.70;99.90;;;;;;4946167;28;20058;-75
2023/10/05 02:42:25;;;;;;;4.50;2.70;;;9.60;99.90;;;;;;4948637;28;20051;-75
2023/10/05 02:45:03;;;;;;;5.88;2.75;;;9.60;99.90;;;;;;4964833;28;20027;-75
2023/10/05 02:47:33;;;;;;;6.25;2.17;;;9.50;99.90;;;;;;4970889;28;20069;-74
2023/10/05 02:49:59;;;;;;;6.13;2.38;;;9.50;99.90;;;;;;4951297;28;20086;-75
2023/10/05 02:52:26;;;;;;;6.90;2.65;;;9.50;99.90;;;;;;4953093;28;20078;-75
2023/10/05 02:54:55;;;;;;;3.88;1.58;;;9.50;99.90;;;;;;4944388;28;20062;-75
2023/10/05 02:57:25;;;;;;;5.35;1.92;;;9.50;99.90;;;;;;4951743;28;20043;-75
2023/10/05 02:59:51;;;;;;;3.83;1.67;;;9.50;99.90;;;;;;4992716;23;20086;-84
2023/10/05 03:02:18;;;;;;;4.82;1.85;;;9.50;99.90;;;;;;4973874;28;20415;-84
2023/10/05 03:04:45;;;;;;;4.43;1.58;;;9.50;99.90;;;;;;4973063;28;20110;-84
2023/10/05 03:07:18;;;;;;;8.77;1.58;;;9.50;99.90;;;;;;4972991;28;20019;-85
2023/10/05 03:09:49;;;;;;;4.88;1.48;;;9.50;99.90;;;;;;4987473;28;20038;-84
2023/10/05 03:12:15;;;;;;;4.43;1.90;;;9.40;99.90;;;;;;4971622;28;20133;-84
2023/10/05 03:14:43;;;;;;;4.60;1.90;;;9.40;99.90;;;;;;4974586;28;20035;-84
2023/10/05 03:17:13;;;;;;;6.20;1.60;;;9.40;99.90;;;;;;4973285;28;20628;-84
2023/10/05 03:19:39;;;;;;;2.50;1.30;;;9.40;99.90;;;;;;4972507;28;20480;-84
2023/10/05 03:22:08;;;;;;;3.00;1.30;;;9.40;99.90;;;;;;4969274;28;20022;-84
2023/10/05 03:24:37;;;;;;;4.53;1.95;;;9.40;99.90;;;;;;4968849;28;20075;-84
2023/10/05 03:27:03;;;;;;;4.05;1.92;;;9.50;99.90;;;;;;4971476;28;20026;-84
2023/10/05 03:29:29;;;;;;;3.17;1.48;;;9.40;99.90;;;;;;4972489;28;20026;-84
2023/10/05 03:32:04;;;;;;;3.72;1.45;;;9.50;99.90;;;;;;4972703;28;20493;-84
2023/10/05 03:34:32;;;;;;;3.55;1.45;;;9.40;99.90;;;;;;4970950;28;20599;-83
2023/10/05 03:37:03;;;;;;;3.47;1.65;;;9.50;99.90;;;;;;4970168;28;20842;-84
2023/10/05 03:39:33;;;;;;;3.22;1.55;;;9.50;99.90;;;;;;4977433;28;20033;-84
2023/10/05 03:41:59;;;;;;;4.70;1.75;;;9.50;99.90;;;;;;4977175;28;20035;-84
2023/10/05 03:44:25;;;;;;;3.30;1.30;;;9.50;99.90;;;;;;4975633;28;20432;-84
2023/10/05 03:46:52;;;;;;;3.45;1.35;;;9.50;99.90;;;;;;4976744;28;20030;-84
2023/10/05 03:49:21;;;;;;;8.00;1.50;;;9.50;99.90;;;;;;4976903;28;20031;-84
2023/10/05 03:51:50;;;;;;;3.03;1.30;;;9.50;99.90;;;;;;4976384;28;20027;-84
2023/10/05 03:54:17;;;;;;;3.97;2.00;;;9.60;99.90;;;;;;4975771;28;20034;-84
2023/10/05 03:56:44;;;;;;;5.13;2.05;;;9.60;99.90;;;;;;4975192;28;20562;-84
2023/10/05 03:59:11;;;;;;;11.63;1.90;;;9.60;99.90;;;;;;4974184;28;20063;-84
2023/10/05 04:01:36;;;;;;;5.65;2.22;;;9.60;99.90;;;;;;4974333;28;20495;-84
2023/10/05 04:04:08;;;;;;;6.03;2.30;;;9.60;99.90;;;;;;4969257;28;20049;-84
2023/10/05 04:06:36;;;;;;;7.40;1.90;;;9.60;99.90;;;;;;4972932;28;20027;-84
2023/10/05 04:09:03;;;;;;;8.20;2.47;;;9.60;99.90;;;;;;4977693;28;20030;-84
2023/10/05 04:11:33;;;;;;;5.85;2.13;;;9.70;99.90;;;;;;4976255;28;20033;-84
2023/10/05 04:14:01;;;;;;;5.65;2.45;;;9.60;99.90;;;;;;4972322;28;20026;-84
2023/10/05 04:16:28;;;;;;;4.40;2.53;;;9.60;99.90;;;;;;4971913;28;20029;-84
2023/10/05 04:18:59;;;;;;;6.75;2.85;;;9.60;99.90;;;;;;4973720;28;20118;-84
2023/10/05 04:21:25;;;;;;;7.22;2.63;;;9.60;99.90;;;;;;4972989;28;20018;-84
2023/10/05 04:23:56;;;;;;;5.40;2.30;;;9.60;99.90;;;;;;4973681;28;20121;-84
2023/10/05 04:26:22;;;;;;;8.65;2.95;;;9.60;99.90;;;;;;4968195;28;20153;-84
2023/10/05 04:28:54;;;;;;;7.15;2.10;;;9.50;99.90;;;;;;4989600;28;20023;-84
2023/10/05 04:31:27;;;;;;;5.55;2.63;;;9.50;99.90;;;;;;4972845;28;20030;-85
2023/10/05 04:33:57;;;;;;;7.25;2.53;;;9.50;99.90;;;;;;4973858;28;20110;-84
2023/10/05 04:36:25;;;;;;;5.30;2.38;;;9.50;99.90;;;;;;4972316;28;20027;-84
2023/10/05 04:38:53;;;;;;;6.03;2.75;;;9.50;99.90;;;;;;4972019;28;20038;-84
2023/10/05 04:41:21;;;;;;;4.00;2.47;;;9.50;99.90;;;;;;4972566;28;20023;-83
2023/10/05 04:43:50;;;;;;;5.03;2.35;;;9.50;99.90;;;;;;4974102;28;20791;-83
2023/10/05 04:46:19;;;;;;;7.40;3.95;;;9.50;99.90;;;;;;4974097;28;20022;-83
2023/10/05 04:48:55;;;;;;;8.40;4.05;;;9.50;99.90;;;;;;4975900;28;20093;-84
2023/10/05 04:51:23;;;;;;;5.15;3.05;;;9.50;99.90;;;;;;4975502;28;20050;-84
2023/10/05 04:53:53;;;;;;;9.93;3.70;;;9.50;99.90;;;;;;4973121;28;20027;-84
2023/10/05 04:56:35;;;;;;;8.68;3.15;;;9.50;99.90;;;;;;4976983;28;20125;-84
2023/10/05 05:01:56;;;;;;;4.80;3.00;;;9.50;99.90;;;;;;4976512;28;20057;-84
2023/10/05 05:04:52;;;;;;;4.38;1.70;;;9.50;99.90;;;;;;4988164;28;20019;-84
2023/10/05 05:07:21;;;;;;;5.97;2.15;;;9.50;99.90;;;;;;4976614;28;20411;-84
2023/10/05 05:09:50;;;;;;;5.55;1.88;;;9.50;99.90;;;;;;4977532;28;20035;-84
2023/10/05 05:12:16;;;;;;;4.65;1.98;;;9.50;99.90;;;;;;4969408;28;20061;-84
2023/10/05 05:14:46;;;;;;;4.75;2.15;;;9.50;99.90;;;;;;4973104;28;20485;-84
2023/10/05 05:17:18;;;;;;;4.05;1.58;;;9.50;99.90;;;;;;4975655;28;20030;-83
2023/10/05 05:19:44;;;;;;;4.30;2.00;;;9.50;99.90;;;;;;4977427;28;20023;-83
2023/10/05 05:22:11;;;;;;;6.63;2.05;;;9.50;99.90;;;;;;4974064;28;20023;-84
2023/10/05 05:24:37;;;;;;;3.92;1.73;;;9.50;99.90;;;;;;4972615;28;20034;-84
2023/10/05 05:27:04;;;;;;;6.88;2.70;;;9.60;99.90;;;;;;4976123;28;20084;-84
2023/10/05 05:29:33;;;;;;;4.60;2.05;;;9.60;99.90;;;;;;4974699;28;20411;-84
2023/10/05 05:32:22;;;;;;;7.00;1.85;;;9.60;99.90;;;;;;4970751;28;20081;-84
2023/10/05 05:34:51;;;;;;;4.28;2.08;;;9.60;99.90;;;;;;4972758;28;20030;-84
2023/10/05 05:37:30;;;;;;;7.10;1.70;;;9.60;99.90;;;;;;4971780;28;20113;-84
2023/10/05 05:39:57;;;;;;;5.53;2.08;;;9.60;99.90;;;;;;4972975;28;20518;-84
2023/10/05 05:42:25;;;;;;;3.38;1.90;;;9.60;99.90;;;;;;4973627;28;20097;-84
2023/10/05 05:44:52;;;;;;;4.47;1.80;;;9.70;99.90;;;;;;4975454;28;20031;-84
2023/10/05 05:47:18;;;;;;;4.07;1.80;;;9.70;99.90;;;;;;4973969;28;20019;-84
2023/10/05 05:49:47;;;;;;;4.60;1.77;;;9.70;99.90;;;;;;4976394;28;20050;-84
2023/10/05 05:52:14;;;;;;;4.10;1.90;;;9.70;99.90;;;;;;4980024;28;20030;-84
2023/10/05 05:54:46;;;;;;;6.45;2.00;;;9.70;99.90;;;;;;5010047;28;20065;-84
2023/10/05 05:57:12;;;;;;;4.95;1.77;;;9.70;99.90;;;;;;4991407;28;20475;-82
2023/10/05 05:59:39;;;;;;;6.28;2.80;;;9.80;99.90;;;;;;4989163;28;20038;-82
2023/10/05 06:02:09;;;;;;;7.82;3.10;;;9.80;99.90;;;;;;4990498;28;20550;-82
2023/10/05 06:04:39;;;;;;;8.85;3.30;;;9.80;99.90;;;;;;4990858;28;20023;-81
2023/10/05 06:07:11;;;;;;;9.70;3.70;;;9.80;99.90;;;;;;4990440;28;20086;-84
2023/10/05 06:09:46;;;;;;;9.05;3.70;;;9.80;99.90;;;;;;4991095;28;20015;-82
2023/10/05 06:12:15;;;;;;;6.93;3.20;;;9.90;99.90;;;;;;4989245;28;20037;-84
2023/10/05 06:14:41;;;;;;;6.70;3.38;;;9.80;99.90;;;;;;4987881;28;20186;-84
2023/10/05 06:17:25;;;;;;;6.90;3.40;;;9.80;99.90;;;;;;5007872;28;20035;-83
2023/10/05 06:19:51;;;;;;;10.25;3.83;;;9.80;99.90;;;;;;4993987;28;20006;-84
2023/10/05 06:22:17;;;;;;;8.10;3.22;;;9.90;99.90;;;;;;4995206;28;20038;-84
2023/10/05 06:24:42;;;;;;;9.98;3.47;;;9.90;99.90;;;;;;4995124;28;20070;-85
2023/10/05 06:27:08;;;;;;;10.57;4.03;;;9.90;99.90;;;;;;4995419;28;20086;-85
2023/10/05 06:29:37;;;;;;;10.52;3.50;;;9.90;99.90;;;;;;4995686;28;20094;-85
2023/10/05 06:32:04;;;;;;;8.75;3.30;;;9.90;99.90;;;;;;4997984;28;20015;-84
2023/10/05 06:34:30;;;;;;;11.30;3.35;;;10.00;99.90;;;;;;4980780;28;20068;-85
2023/10/05 06:36:56;;;;;;;10.60;3.05;;;10.10;99.90;;;;;;4995344;28;20053;-85
2023/10/05 06:39:27;;;;;;;9.30;3.35;;;10.20;99.90;;;;;;4998589;28;20042;-85
2023/10/05 06:41:53;;;;;;;8.00;2.97;;;10.30;99.90;;;;;;4994437;28;20023;-83
2023/10/05 06:44:20;;;;;;;9.05;3.28;;;10.30;99.90;;;;;;4997528;28;20015;-86
2023/10/05 06:46:46;;;;;;;13.35;3.35;;;10.40;99.90;;;;;;4991580;28;20054;-85
2023/10/05 06:49:12;;;;;;;6.45;3.10;;;10.40;99.90;;;;;;4989727;28;20046;-85
2023/10/05 06:51:43;;;;;;;6.93;2.92;;;10.50;99.90;;;;;;4988178;28;20089;-86
2023/10/05 06:54:09;;;;;;;6.03;2.58;;;10.50;99.90;;;;;;4988339;28;20023;-84
2023/10/05 06:56:35;;;;;;;7.55;2.78;;;10.50;99.90;;;;;;4989794;28;20049;-85
2023/10/05 06:59:00;;;;;;;6.07;3.03;;;10.50;99.90;;;;;;4989440;28;20551;-84
2023/10/05 07:01:26;;;;;;;11.70;2.70;;;10.60;99.90;;;;;;4990593;28;20058;-84
2023/10/05 07:03:55;;;;;;;7.63;3.20;;;10.60;99.90;;;;;;4991012;28;20031;-84
2023/10/05 07:06:29;;;;;;;7.45;2.55;;;10.70;99.90;;;;;;4988465;28;20059;-85
2023/10/05 07:08:55;;;;;;;6.93;2.90;;;10.80;99.90;;;;;;4980055;28;20033;-85
2023/10/05 07:11:22;;;;;;;5.80;2.75;;;10.80;99.90;;;;;;4988363;28;20050;-85
2023/10/05 07:13:48;;;;;;;7.25;2.97;;;10.80;99.90;;;;;;4984629;28;20031;-85
2023/10/05 07:16:14;;;;;;;5.05;2.53;;;10.90;99.90;;;;;;4990295;28;20097;-84
2023/10/05 07:18:40;;;;;;;6.93;2.25;;;10.90;99.90;;;;;;4993048;28;20054;-84
2023/10/05 07:21:08;;;;;;;5.22;2.58;;;10.90;99.90;;;;;;4993504;28;20027;-84
2023/10/05 07:23:36;;;;;;;13.15;3.15;;;10.90;99.90;;;;;;4994256;28;20647;-84
2023/10/05 07:26:03;;;;;;;16.40;4.03;;;10.90;99.90;;;;;;4990081;28;20038;-84
2023/10/05 07:28:29;;;;;;;10.80;3.75;;;10.90;99.90;;;;;;4998267;28;20004;-84
2023/10/05 07:30:56;;;;;;;10.07;3.03;;;10.90;99.90;;;;;;4996835;28;20074;-84
2023/10/05 07:33:22;;;;;;;6.82;2.70;;;11.00;99.90;;;;;;4996308;28;20083;-84
2023/10/05 07:35:53;;;;;;;8.40;2.95;;;11.00;99.90;;;;;;4999054;28;20031;-84
2023/10/05 07:38:19;;;;;;;7.32;3.10;;;11.00;99.90;;;;;;4980452;28;20115;-85
2023/10/05 07:40:45;;;;;;;7.40;3.38;;;11.00;99.90;;;;;;4991847;28;20015;-85
2023/10/05 07:43:11;;;;;;;9.00;3.28;;;11.00;99.90;;;;;;4990394;28;20062;-85
2023/10/05 07:45:43;;;;;;;8.10;3.03;;;11.10;99.90;;;;;;4998523;28;20015;-84
2023/10/05 07:48:09;;;;;;;9.43;3.03;;;11.10;99.90;;;;;;5007209;28;20356;-85
2023/10/05 07:50:37;;;;;;;7.15;2.65;;;11.20;99.90;;;;;;4994314;28;20051;-85
2023/10/05 07:53:02;;;;;;;9.75;3.45;;;11.20;99.90;;;;;;4984745;28;20063;-85
2023/10/05 07:55:28;;;;;;;6.10;2.55;;;11.30;99.90;;;;;;4988120;28;20034;-84
2023/10/05 07:57:54;;;;;;;7.43;2.47;;;11.40;99.90;;;;;;4992200;28;20035;-85
2023/10/05 08:00:21;;;;;;;11.73;3.65;;;11.50;99.90;;;;;;4986556;28;20086;-84
2023/10/05 08:02:47;;;;;;;8.23;3.13;;;11.50;99.90;;;;;;4991386;28;20034;-85
2023/10/05 08:05:13;;;;;;;10.02;3.17;;;11.60;99.90;;;;;;4989471;28;20042;-84
2023/10/05 08:07:39;;;;;;;7.68;3.55;;;11.50;99.90;;;;;;4990390;28;20054;-85
2023/10/05 08:10:06;;;;;;;9.43;3.55;;;11.60;99.90;;;;;;4990821;28;20027;-85
2023/10/05 08:12:33;;;;;;;7.03;3.38;;;11.70;99.90;;;;;;4992870;28;20062;-84
2023/10/05 08:14:59;;;;;;;7.45;3.42;;;11.70;99.90;;;;;;4982967;28;20043;-85
2023/10/05 08:17:25;;;;;;;10.35;3.83;;;11.80;99.90;;;;;;5006917;28;20023;-85
2023/10/05 08:19:51;;;;;;;9.65;4.07;;;11.80;99.90;;;;;;4990713;28;20392;-85
2023/10/05 08:22:16;;;;;;;6.93;3.28;;;11.90;99.90;;;;;;4986377;28;20061;-85
2023/10/05 08:24:43;;;;;;;7.20;3.95;;;11.90;99.90;;;;;;4987190;28;20043;-84
2023/10/05 08:27:13;;;;;;;8.57;4.13;;;12.00;99.90;;;;;;4992231;28;20035;-83
2023/10/05 08:29:42;;;;;;;17.27;4.07;;;12.00;99.90;;;;;;5003262;28;20075;-85
2023/10/05 08:32:13;;;;;;;9.23;3.17;;;12.10;99.90;;;;;;4988979;28;20023;-84
2023/10/05 08:34:44;;;;;;;8.40;3.05;;;12.20;99.90;;;;;;4992441;28;20043;-84
2023/10/05 08:37:11;;;;;;;9.25;3.47;;;12.30;99.90;;;;;;4994443;28;20025;-84
2023/10/05 08:39:37;;;;;;;7.30;3.33;;;12.30;99.90;;;;;;4997095;28;20054;-84
2023/10/05 08:42:06;;;;;;;10.30;3.50;;;12.40;99.90;;;;;;4996119;28;20034;-84
2023/10/05 08:44:38;;;;;;;12.15;3.42;;;12.50;99.90;;;;;;4993789;28;20043;-84
2023/10/05 08:47:10;;;;;;;7.47;3.72;;;12.50;99.90;;;;;;4999014;28;20035;-84
2023/10/05 08:49:37;;;;;;;7.80;3.08;;;12.60;99.90;;;;;;4998274;28;20046;-85
2023/10/05 08:52:13;;;;;;;7.72;3.38;;;12.70;99.90;;;;;;4997487;28;20027;-85
2023/10/05 08:54:39;;;;;;;8.95;3.30;;;12.70;99.90;;;;;;4987963;28;20026;-84
2023/10/05 08:57:10;;;;;;;6.28;2.60;;;12.90;99.90;;;;;;4990494;28;20045;-84
2023/10/05 08:59:45;;;;;;;7.13;3.33;;;12.90;99.90;;;;;;4992254;28;20031;-84
2023/10/05 09:02:21;;;;;;;8.63;3.22;;;13.00;99.90;;;;;;4991933;28;20149;-84
2023/10/05 09:04:55;;;;;;;8.75;3.05;;;13.10;99.90;;;;;;4992565;28;20019;-84
2023/10/05 09:07:37;;;;;;;5.97;2.63;;;13.20;99.90;;;;;;4999013;28;20010;-84
2023/10/05 09:10:05;;;;;;;6.45;2.88;;;13.20;99.90;;;;;;4993145;28;20042;-85
2023/10/05 09:12:35;;;;;;;8.95;3.42;;;13.30;99.90;;;;;;5015334;28;20019;-85
2023/10/05 09:15:05;;;;;;;10.10;3.20;;;13.40;99.90;;;;;;4996350;28;20011;-85
2023/10/05 09:17:34;;;;;;;9.25;2.67;;;13.50;99.90;;;;;;4999399;28;20019;-85
2023/10/05 09:20:19;;;;;;;5.43;2.55;;;13.60;99.90;;;;;;4999658;28;20031;-84
2023/10/05 09:22:53;;;;;;;7.10;2.83;;;13.70;99.90;;;;;;4994718;28;20021;-85
2023/10/05 09:25:27;;;;;;;8.55;2.55;;;13.80;99.90;;;;;;4999697;28;20023;-84
2023/10/05 09:27:55;;;;;;;8.07;2.60;;;13.90;99.90;;;;;;4999049;28;20019;-85
2023/10/05 09:30:22;;;;;;;5.72;2.40;;;14.00;99.90;;;;;;4988019;28;20027;-83
2023/10/05 09:32:48;;;;;;;6.63;2.50;;;14.10;99.90;;;;;;4998864;28;20010;-84
2023/10/05 09:35:27;;;;;;;6.07;2.83;;;14.10;99.90;;;;;;4994111;28;20022;-84
2023/10/05 09:37:58;;;;;;;6.65;2.50;;;14.20;99.90;;;;;;4999488;28;20015;-84
2023/10/05 09:40:26;;;;;;;5.60;2.45;;;14.30;99.90;;;;;;4983000;28;20034;-85
2023/10/05 09:42:55;;;;;;;4.82;1.83;;;14.30;99.90;;;;;;4981181;28;20031;-84
2023/10/05 09:45:23;;;;;;;7.20;2.08;;;14.40;99.90;;;;;;4994210;28;20030;-85
2023/10/05 09:47:53;;;;;;;6.47;1.83;;;14.40;99.90;;;;;;4978845;28;20027;-85
2023/10/05 09:50:21;;;;;;;3.85;2.05;;;14.60;99.90;;;;;;4971322;28;20418;-85
2023/10/05 09:52:48;;;;;;;6.43;2.58;;;14.70;99.90;;;;;;4970545;28;20022;-85
2023/10/05 09:55:18;;;;;;;6.00;2.13;;;14.80;99.90;;;;;;4975936;28;20034;-84
2023/10/05 09:57:51;;;;;;;4.57;1.88;;;14.80;99.90;;;;;;4971121;28;20023;-84
2023/10/05 10:00:29;;;;;;;6.32;1.95;;;14.90;99.90;;;;;;4972907;28;20031;-84
2023/10/05 10:03:03;;;;;;;5.38;1.88;;;14.90;99.90;;;;;;4969692;28;20081;-83
2023/10/05 10:05:36;;;;;;;4.85;2.00;;;15.00;99.90;;;;;;4972372;28;21622;-84
2023/10/05 10:08:20;;;;;;;9.15;2.35;;;15.00;99.90;;;;;;4969853;28;20417;-84
2023/10/05 10:10:58;;;;;;;;;;;15.10;99.90;;;;;;4996283;28;20452;-85
2023/10/05 10:13:24;;;;;;;5.55;2.08;;;15.20;99.90;;;;;;4980512;28;19917;-85
2023/10/05 10:15:53;;;;;;;5.70;2.03;;;15.30;99.90;;;;;;4976373;28;20066;-85
2023/10/05 10:18:30;;;;;;;8.73;2.20;;;15.30;99.90;;;;;;4979254;28;20031;-85
2023/10/05 10:20:57;;;;;;;4.55;1.70;;;15.30;99.90;;;;;;4974849;28;20107;-85
2023/10/05 10:23:27;;;;;;;4.53;2.15;;;15.30;99.90;;;;;;4979091;28;20065;-84
2023/10/05 10:26:16;;;;;;;6.50;2.63;;;15.40;99.90;;;;;;4979126;28;20046;-84
2023/10/05 10:31:14;;;;;;;5.63;2.75;;;15.40;99.90;;;;;;4980666;28;20031;-84
2023/10/05 10:33:41;;;;;;;6.55;2.22;;;15.40;99.90;;;;;;4994497;28;20038;-84
2023/10/05 10:36:18;;;;;;;7.97;2.70;;;15.40;99.90;;;;;;4979451;28;20380;-85
2023/10/05 10:38:51;;;;;;;8.13;2.08;;;15.50;99.90;;;;;;4982959;28;20035;-85
2023/10/05 10:41:21;;;;;;;2.88;1.75;;;15.50;99.90;;;;;;4976166;28;20166;-85
2023/10/05 10:43:53;;;;;;;5.03;2.20;;;15.50;99.90;;;;;;4979236;28;20113;-85
2023/10/05 10:46:20;;;;;;;4.88;1.90;;;15.60;99.90;;;;;;4979094;28;20026;-85
2023/10/05 10:48:53;;;;;;;7.68;2.40;;;15.60;99.90;;;;;;4984153;28;20059;-85
2023/10/05 10:51:21;;;;;;;4.73;1.90;;;15.60;99.90;;;;;;4979707;28;20074;-85
2023/10/05 10:53:52;;;;;;;5.78;2.42;;;15.70;99.60;;;;;;4972102;28;20022;-85
2023/10/05 10:56:21;;;;;;;7.68;2.45;;;15.70;99.60;;;;;;4975908;28;20035;-85
2023/10/05 10:58:56;;;;;;;6.93;2.05;;;15.80;99.60;;;;;;4975530;28;20054;-86
2023/10/05 11:01:28;;;;;;;5.38;2.53;;;15.90;99.20;;;;;;4974809;28;20027;-85
2023/10/05 11:04:04;;;;;;;5.03;1.88;;;15.90;98.70;;;;;;4976948;28;20078;-85
2023/10/05 11:06:30;;;;;;;12.55;3.05;;;16.00;98.80;;;;;;4978136;28;20034;-85
2023/10/05 11:08:59;;;;;;;8.00;2.63;;;16.10;98.80;;;;;;4974927;28;20436;-85
2023/10/05 11:11:26;;;;;;;8.32;1.85;;;16.10;98.60;;;;;;4973535;28;20027;-85
2023/10/05 11:14:05;;;;;;;5.95;1.75;;;16.10;98.40;;;;;;4971837;28;20037;-85
2023/10/05 11:16:43;;;;;;;3.78;1.40;;;16.20;98.30;;;;;;4973057;28;20030;-85
2023/10/05 11:19:13;;;;;;;5.32;1.83;;;16.30;97.70;;;;;;4974376;28;20030;-84
2023/10/05 11:21:45;;;;;;;3.97;1.40;;;16.40;97.50;;;;;;4973273;28;20499;-85
2023/10/05 11:24:15;;;;;;;3.28;1.70;;;16.40;97.60;;;;;;4974889;28;20035;-85
2023/10/05 11:27:09;;;;;;;5.93;1.88;;;16.50;97.30;;;;;;4975899;28;20019;-84
2023/10/05 11:29:48;;;;;;;5.75;2.03;;;16.50;97.30;;;;;;4975922;28;20144;-84
2023/10/05 11:32:20;;;;;;;5.25;2.10;;;16.60;96.90;;;;;;4974481;28;20098;-84
2023/10/05 11:34:46;;;;;;;5.25;2.28;;;16.60;96.90;;;;;;4975017;28;20027;-84
2023/10/05 11:37:18;;;;;;;6.85;2.67;;;16.70;96.50;;;;;;4984384;28;20042;-84
2023/10/05 11:39:50;;;;;;;5.82;2.40;;;16.70;96.20;;;;;;4970866;28;20039;-85
2023/10/05 11:42:24;;;;;;;6.00;2.13;;;16.70;96.30;;;;;;4971175;28;20038;-84
2023/10/05 11:44:55;;;;;;;9.80;2.30;;;16.70;96.20;;;;;;4971557;28;20035;-85
2023/10/05 11:47:32;;;;;;;6.25;2.63;;;16.60;96.10;;;;;;4984444;28;20026;-85
2023/10/05 11:50:07;;;;;;;8.75;3.25;;;16.60;96.30;;;;;;4973213;28;20042;-86
2023/10/05 11:52:33;;;;;;;7.00;3.13;;;16.70;96.70;;;;;;4972693;28;20514;-85
2023/10/05 11:54:58;;;;;;;6.55;2.67;;;16.80;96.90;;;;;;4972467;28;20034;-85
2023/10/05 11:57:24;;;;;;;6.28;2.38;;;16.80;97.00;;;;;;4969710;28;20093;-84
2023/10/05 11:59:49;;;;;;;10.05;3.13;;;16.80;96.90;;;;;;4976549;28;20035;-84
2023/10/05 12:02:17;;;;;;;6.13;2.30;;;16.80;96.90;;;;;;4976653;28;20023;-85
2023/10/05 12:04:43;;;;;;;8.07;2.30;;;16.90;96.90;;;;;;4975262;28;20487;-84
2023/10/05 12:07:12;;;;;;;9.38;2.65;;;16.90;96.80;;;;;;4976104;28;20022;-84
2023/10/05 12:09:43;;;;;;;7.57;2.70;;;16.90;96.80;;;;;;4976555;28;20039;-84
2023/10/05 12:12:13;;;;;;;5.93;2.47;;;17.00;97.00;;;;;;4976050;28;20068;-84
2023/10/05 12:14:42;;;;;;;5.53;2.35;;;17.10;96.60;;;;;;4974754;28;20035;-84
2023/10/05 12:17:11;;;;;;;8.98;2.85;;;17.10;96.20;;;;;;4976958;28;20031;-84
2023/10/05 12:19:38;;;;;;;9.18;3.55;;;17.10;96.20;;;;;;4976658;28;20023;-84
2023/10/05 12:22:13;;;;;;;8.73;2.72;;;17.10;96.40;;;;;;4976077;28;20026;-84
2023/10/05 12:24:39;;;;;;;6.50;3.15;;;17.10;96.30;;;;;;4974769;28;20019;-85
2023/10/05 12:27:13;;;;;;;10.23;2.67;;;17.10;96.10;;;;;;4975808;28;20446;-84
2023/10/05 12:29:41;;;;;;;;;;;17.00;95.90;;;;;;4976883;28;20031;-84
2023/10/05 12:32:10;;;;;;;8.25;2.80;;;17.00;96.00;;;;;;4993951;28;19992;-84
2023/10/05 12:34:41;;;;;;;9.73;2.88;;;17.10;95.40;;;;;;4975910;28;20037;-83
2023/10/05 12:37:08;;;;;;;9.57;2.72;;;17.10;95.70;;;;;;4972236;28;20030;-84
2023/10/05 12:39:33;;;;;;;8.13;2.65;;;17.10;95.70;;;;;;4975604;28;20018;-83
2023/10/05 12:42:00;;;;;;;8.30;3.40;;;17.20;95.80;;;;;;4976065;28;20431;-84
2023/10/05 12:44:27;;;;;;;9.23;3.45;;;17.20;95.60;;;;;;4976372;28;20023;-83
2023/10/05 12:46:53;;;;;;;6.80;2.60;;;17.20;95.50;;;;;;4975689;28;20142;-83
2023/10/05 12:49:20;;;;;;;8.93;2.90;;;17.20;94.90;;;;;;4990820;28;20054;-84
2023/10/05 12:51:47;;;;;;;6.10;3.17;;;17.30;94.90;;;;;;4973941;28;20107;-83
2023/10/05 12:54:21;;;;;;;12.80;4.78;;;17.30;94.90;;;;;;4976986;28;20027;-86
2023/10/05 12:56:51;;;;;;;10.88;4.10;;;17.30;94.90;;;;;;4972821;28;20038;-85
2023/10/05 12:59:20;;;;;;;9.35;3.63;;;17.30;95.00;;;;;;4976840;28;20027;-84
2023/10/05 13:01:47;;;;;;;8.65;3.20;;;17.40;94.90;;;;;;4975242;28;20078;-85
2023/10/05 13:04:14;;;;;;;8.25;3.22;;;17.40;94.10;;;;;;4973048;28;20034;-84
2023/10/05 13:06:40;;;;;;;10.27;2.72;;;17.20;93.70;;;;;;4976476;28;20089;-85
2023/10/05 13:09:19;;;;;;;6.75;2.63;;;17.10;93.80;;;;;;4977060;28;20038;-85
2023/10/05 13:11:45;;;;;;;11.18;3.00;;;17.10;93.90;;;;;;4975364;28;20104;-85
2023/10/05 13:14:14;;;;;;;9.13;3.03;;;17.00;94.00;;;;;;4974293;28;20054;-85
2023/10/05 13:16:50;;;;;;;7.97;3.45;;;16.90;93.90;;;;;;4998187;28;20050;-85
2023/10/05 13:19:18;;;;;;;13.05;3.65;;;16.90;93.90;;;;;;4981455;28;20097;-85
2023/10/05 13:21:44;;;;;;;10.88;3.15;;;16.90;93.70;;;;;;4976402;28;20031;-84
2023/10/05 13:24:11;;;;;;;8.93;2.97;;;16.90;93.40;;;;;;4976054;28;20023;-84